sensor_id;sensor_type;location;lat;lon;timestamp;P1;durP1;ratioP1;P2;durP2;ratioP2
17251;SDS011;8742;51.716;8.790;2022-09-12T00:02:22;13.17;;;10.27;;
17251;SDS011;8742;51.716;8.790;2022-09-12T00:04:50;16.53;;;11.10;;
17251;SDS011;8742;51.716;8.790;2022-09-12T00:07:17;16.87;;;10.73;;
17251;SDS011;8742;51.716;8.790;2022-09-12T00:09:45;19.10;;;11.50;;
17251;SDS011;8742;51.716;8.790;2022-09-12T00:12:12;15.07;;;10.60;;
17251;SDS011;8742;51.716;8.790;2022-09-12T00:14:39;18.40;;;11.60;;
17251;SDS011;8742;51.716;8.790;2022-09-12T00:17:06;17.47;;;11.30;;
17251;SDS011;8742;51.716;8.790;2022-09-12T00:19:33;19.50;;;11.57;;
17251;SDS011;8742;51.716;8.790;2022-09-12T00:21:59;20.97;;;12.23;;
17251;SDS011;8742;51.716;8.790;2022-09-12T00:24:26;15.83;;;11.30;;
17251;SDS011;8742;51.716;8.790;2022-09-12T00:26:55;18.97;;;11.40;;
17251;SDS011;8742;51.716;8.790;2022-09-12T00:29:21;22.07;;;11.70;;
17251;SDS011;8742;51.716;8.790;2022-09-12T00:31:48;20.07;;;11.93;;
17251;SDS011;8742;51.716;8.790;2022-09-12T00:34:15;17.33;;;11.57;;
17251;SDS011;8742;51.716;8.790;2022-09-12T00:36:42;17.63;;;11.37;;
17251;SDS011;8742;51.716;8.790;2022-09-12T00:39:09;20.50;;;11.33;;
17251;SDS011;8742;51.716;8.790;2022-09-12T00:41:40;19.50;;;11.43;;
17251;SDS011;8742;51.716;8.790;2022-09-12T00:47:11;19.17;;;11.63;;
17251;SDS011;8742;51.716;8.790;2022-09-12T00:49:43;21.43;;;12.53;;
17251;SDS011;8742;51.716;8.790;2022-09-12T00:52:15;20.73;;;13.20;;
17251;SDS011;8742;51.716;8.790;2022-09-12T00:54:46;21.20;;;12.33;;
17251;SDS011;8742;51.716;8.790;2022-09-12T00:57:17;18.30;;;12.57;;
17251;SDS011;8742;51.716;8.790;2022-09-12T00:59:46;18.57;;;12.97;;
17251;SDS011;8742;51.716;8.790;2022-09-12T01:02:17;19.87;;;11.67;;
17251;SDS011;8742;51.716;8.790;2022-09-12T01:04:44;15.23;;;11.50;;
17251;SDS011;8742;51.716;8.790;2022-09-12T01:07:11;15.77;;;11.40;;
17251;SDS011;8742;51.716;8.790;2022-09-12T01:09:40;22.03;;;12.77;;
17251;SDS011;8742;51.716;8.790;2022-09-12T01:12:09;24.73;;;12.90;;
17251;SDS011;8742;51.716;8.790;2022-09-12T01:14:37;23.43;;;12.97;;
17251;SDS011;8742;51.716;8.790;2022-09-12T01:17:05;17.80;;;11.47;;
17251;SDS011;8742;51.716;8.790;2022-09-12T01:19:39;17.13;;;13.20;;
17251;SDS011;8742;51.716;8.790;2022-09-12T01:22:30;20.40;;;12.43;;
17251;SDS011;8742;51.716;8.790;2022-09-12T01:25:13;16.13;;;11.73;;
17251;SDS011;8742;51.716;8.790;2022-09-12T01:27:53;22.93;;;12.83;;
17251;SDS011;8742;51.716;8.790;2022-09-12T01:30:45;19.10;;;12.23;;
17251;SDS011;8742;51.716;8.790;2022-09-12T01:33:24;17.67;;;12.43;;
17251;SDS011;8742;51.716;8.790;2022-09-12T01:36:13;20.63;;;12.97;;
17251;SDS011;8742;51.716;8.790;2022-09-12T01:39:02;24.23;;;12.50;;
17251;SDS011;8742;51.716;8.790;2022-09-12T01:41:34;17.07;;;11.90;;
17251;SDS011;8742;51.716;8.790;2022-09-12T01:44:09;17.93;;;11.00;;
17251;SDS011;8742;51.716;8.790;2022-09-12T01:46:43;17.17;;;11.10;;
17251;SDS011;8742;51.716;8.790;2022-09-12T01:49:14;15.97;;;10.80;;
17251;SDS011;8742;51.716;8.790;2022-09-12T01:51:50;17.23;;;11.23;;
17251;SDS011;8742;51.716;8.790;2022-09-12T01:54:24;21.80;;;11.97;;
17251;SDS011;8742;51.716;8.790;2022-09-12T01:56:56;16.40;;;10.90;;
17251;SDS011;8742;51.716;8.790;2022-09-12T01:59:27;18.73;;;11.90;;
17251;SDS011;8742;51.716;8.790;2022-09-12T02:02:01;18.47;;;11.20;;
17251;SDS011;8742;51.716;8.790;2022-09-12T02:04:31;21.37;;;11.27;;
17251;SDS011;8742;51.716;8.790;2022-09-12T02:07:03;15.63;;;10.57;;
17251;SDS011;8742;51.716;8.790;2022-09-12T02:09:34;23.60;;;11.70;;
17251;SDS011;8742;51.716;8.790;2022-09-12T02:12:06;15.97;;;11.60;;
17251;SDS011;8742;51.716;8.790;2022-09-12T02:14:35;20.07;;;11.47;;
17251;SDS011;8742;51.716;8.790;2022-09-12T02:17:08;17.67;;;11.23;;
17251;SDS011;8742;51.716;8.790;2022-09-12T02:19:39;22.53;;;13.20;;
17251;SDS011;8742;51.716;8.790;2022-09-12T02:22:08;19.87;;;12.10;;
17251;SDS011;8742;51.716;8.790;2022-09-12T02:24:41;17.00;;;12.63;;
17251;SDS011;8742;51.716;8.790;2022-09-12T02:27:13;14.90;;;11.23;;
17251;SDS011;8742;51.716;8.790;2022-09-12T02:29:41;17.40;;;11.60;;
17251;SDS011;8742;51.716;8.790;2022-09-12T02:32:13;17.37;;;11.13;;
17251;SDS011;8742;51.716;8.790;2022-09-12T02:34:46;19.40;;;11.87;;
17251;SDS011;8742;51.716;8.790;2022-09-12T02:37:20;21.63;;;12.00;;
17251;SDS011;8742;51.716;8.790;2022-09-12T02:39:54;16.93;;;11.53;;
17251;SDS011;8742;51.716;8.790;2022-09-12T02:42:21;17.90;;;11.87;;
17251;SDS011;8742;51.716;8.790;2022-09-12T02:44:49;16.70;;;11.67;;
17251;SDS011;8742;51.716;8.790;2022-09-12T02:47:22;15.80;;;11.10;;
17251;SDS011;8742;51.716;8.790;2022-09-12T02:49:53;23.07;;;12.73;;
17251;SDS011;8742;51.716;8.790;2022-09-12T02:52:21;18.97;;;11.83;;
17251;SDS011;8742;51.716;8.790;2022-09-12T02:54:48;18.63;;;12.10;;
17251;SDS011;8742;51.716;8.790;2022-09-12T02:57:16;20.03;;;13.37;;
17251;SDS011;8742;51.716;8.790;2022-09-12T02:59:44;17.87;;;12.10;;
17251;SDS011;8742;51.716;8.790;2022-09-12T03:02:15;21.90;;;14.40;;
17251;SDS011;8742;51.716;8.790;2022-09-12T03:05:00;21.73;;;12.80;;
17251;SDS011;8742;51.716;8.790;2022-09-12T03:07:41;19.37;;;11.77;;
17251;SDS011;8742;51.716;8.790;2022-09-12T03:10:22;20.83;;;12.80;;
17251;SDS011;8742;51.716;8.790;2022-09-12T03:12:55;18.57;;;12.90;;
17251;SDS011;8742;51.716;8.790;2022-09-12T03:15:33;22.80;;;12.93;;
17251;SDS011;8742;51.716;8.790;2022-09-12T03:18:15;19.43;;;12.20;;
17251;SDS011;8742;51.716;8.790;2022-09-12T03:20:49;16.00;;;10.83;;
17251;SDS011;8742;51.716;8.790;2022-09-12T03:23:23;17.50;;;11.83;;
17251;SDS011;8742;51.716;8.790;2022-09-12T03:25:56;22.40;;;12.13;;
17251;SDS011;8742;51.716;8.790;2022-09-12T03:28:26;15.60;;;11.23;;
17251;SDS011;8742;51.716;8.790;2022-09-12T03:30:53;19.93;;;12.40;;
17251;SDS011;8742;51.716;8.790;2022-09-12T03:33:22;16.87;;;11.97;;
17251;SDS011;8742;51.716;8.790;2022-09-12T03:35:50;17.30;;;11.20;;
17251;SDS011;8742;51.716;8.790;2022-09-12T03:38:18;17.80;;;11.60;;
17251;SDS011;8742;51.716;8.790;2022-09-12T03:40:45;16.50;;;11.67;;
17251;SDS011;8742;51.716;8.790;2022-09-12T03:43:12;18.70;;;11.70;;
17251;SDS011;8742;51.716;8.790;2022-09-12T03:45:39;17.80;;;11.90;;
17251;SDS011;8742;51.716;8.790;2022-09-12T03:48:06;19.07;;;13.43;;
17251;SDS011;8742;51.716;8.790;2022-09-12T03:50:35;19.87;;;12.27;;
17251;SDS011;8742;51.716;8.790;2022-09-12T03:53:02;21.37;;;13.07;;
17251;SDS011;8742;51.716;8.790;2022-09-12T03:55:29;21.97;;;14.30;;
17251;SDS011;8742;51.716;8.790;2022-09-12T03:57:56;22.00;;;14.13;;
17251;SDS011;8742;51.716;8.790;2022-09-12T04:00:23;22.27;;;13.30;;
17251;SDS011;8742;51.716;8.790;2022-09-12T04:02:52;21.30;;;12.97;;
17251;SDS011;8742;51.716;8.790;2022-09-12T04:05:21;18.53;;;12.57;;
17251;SDS011;8742;51.716;8.790;2022-09-12T04:07:49;25.73;;;13.53;;
17251;SDS011;8742;51.716;8.790;2022-09-12T04:10:16;15.73;;;12.33;;
17251;SDS011;8742;51.716;8.790;2022-09-12T04:12:43;21.10;;;13.20;;
17251;SDS011;8742;51.716;8.790;2022-09-12T04:15:10;22.13;;;13.33;;
17251;SDS011;8742;51.716;8.790;2022-09-12T04:17:37;20.00;;;13.17;;
17251;SDS011;8742;51.716;8.790;2022-09-12T04:20:04;19.53;;;12.50;;
17251;SDS011;8742;51.716;8.790;2022-09-12T04:22:32;19.43;;;12.53;;
17251;SDS011;8742;51.716;8.790;2022-09-12T04:25:00;28.53;;;14.57;;
17251;SDS011;8742;51.716;8.790;2022-09-12T04:27:27;24.80;;;13.27;;
17251;SDS011;8742;51.716;8.790;2022-09-12T04:29:54;22.43;;;12.23;;
17251;SDS011;8742;51.716;8.790;2022-09-12T04:32:21;24.23;;;13.07;;
17251;SDS011;8742;51.716;8.790;2022-09-12T04:34:48;22.33;;;14.53;;
17251;SDS011;8742;51.716;8.790;2022-09-12T04:37:16;25.80;;;14.23;;
17251;SDS011;8742;51.716;8.790;2022-09-12T04:39:43;17.67;;;13.17;;
17251;SDS011;8742;51.716;8.790;2022-09-12T04:42:13;26.93;;;14.00;;
17251;SDS011;8742;51.716;8.790;2022-09-12T04:44:39;22.00;;;12.93;;
17251;SDS011;8742;51.716;8.790;2022-09-12T04:47:06;23.33;;;13.03;;
17251;SDS011;8742;51.716;8.790;2022-09-12T04:49:34;22.33;;;14.13;;
17251;SDS011;8742;51.716;8.790;2022-09-12T04:52:01;22.10;;;13.33;;
17251;SDS011;8742;51.716;8.790;2022-09-12T04:54:28;16.67;;;12.57;;
17251;SDS011;8742;51.716;8.790;2022-09-12T04:56:55;23.27;;;13.63;;
17251;SDS011;8742;51.716;8.790;2022-09-12T04:59:23;25.20;;;13.23;;
17251;SDS011;8742;51.716;8.790;2022-09-12T05:01:50;25.23;;;13.20;;
17251;SDS011;8742;51.716;8.790;2022-09-12T05:04:17;17.73;;;12.13;;
17251;SDS011;8742;51.716;8.790;2022-09-12T05:06:44;23.93;;;13.13;;
17251;SDS011;8742;51.716;8.790;2022-09-12T05:09:12;18.97;;;12.00;;
17251;SDS011;8742;51.716;8.790;2022-09-12T05:11:40;20.77;;;12.20;;
17251;SDS011;8742;51.716;8.790;2022-09-12T05:14:09;20.97;;;13.13;;
17251;SDS011;8742;51.716;8.790;2022-09-12T05:16:37;20.27;;;12.03;;
17251;SDS011;8742;51.716;8.790;2022-09-12T05:19:05;21.47;;;12.07;;
17251;SDS011;8742;51.716;8.790;2022-09-12T05:21:31;15.27;;;11.73;;
17251;SDS011;8742;51.716;8.790;2022-09-12T05:23:58;18.57;;;12.17;;
17251;SDS011;8742;51.716;8.790;2022-09-12T05:26:25;20.07;;;13.03;;
17251;SDS011;8742;51.716;8.790;2022-09-12T05:28:53;15.70;;;12.00;;
17251;SDS011;8742;51.716;8.790;2022-09-12T05:31:20;26.67;;;12.23;;
17251;SDS011;8742;51.716;8.790;2022-09-12T05:33:51;18.57;;;11.70;;
17251;SDS011;8742;51.716;8.790;2022-09-12T05:36:20;19.73;;;12.43;;
17251;SDS011;8742;51.716;8.790;2022-09-12T05:38:48;20.10;;;12.00;;
17251;SDS011;8742;51.716;8.790;2022-09-12T05:41:16;14.83;;;11.40;;
17251;SDS011;8742;51.716;8.790;2022-09-12T05:43:44;19.10;;;12.50;;
17251;SDS011;8742;51.716;8.790;2022-09-12T05:46:13;19.60;;;12.03;;
17251;SDS011;8742;51.716;8.790;2022-09-12T05:48:42;19.20;;;12.17;;
17251;SDS011;8742;51.716;8.790;2022-09-12T05:51:11;18.63;;;11.83;;
17251;SDS011;8742;51.716;8.790;2022-09-12T05:53:43;18.30;;;10.63;;
17251;SDS011;8742;51.716;8.790;2022-09-12T05:56:12;21.77;;;11.57;;
17251;SDS011;8742;51.716;8.790;2022-09-12T05:58:40;16.83;;;11.17;;
17251;SDS011;8742;51.716;8.790;2022-09-12T06:01:10;20.77;;;12.03;;
17251;SDS011;8742;51.716;8.790;2022-09-12T06:03:39;21.10;;;11.73;;
17251;SDS011;8742;51.716;8.790;2022-09-12T06:06:06;16.77;;;11.10;;
17251;SDS011;8742;51.716;8.790;2022-09-12T06:08:39;19.67;;;11.77;;
17251;SDS011;8742;51.716;8.790;2022-09-12T06:11:08;16.30;;;11.23;;
17251;SDS011;8742;51.716;8.790;2022-09-12T06:13:37;15.73;;;11.33;;
17251;SDS011;8742;51.716;8.790;2022-09-12T06:16:05;12.67;;;10.90;;
17251;SDS011;8742;51.716;8.790;2022-09-12T06:18:34;15.90;;;10.57;;
17251;SDS011;8742;51.716;8.790;2022-09-12T06:21:02;18.83;;;10.63;;
17251;SDS011;8742;51.716;8.790;2022-09-12T06:23:30;14.80;;;10.93;;
17251;SDS011;8742;51.716;8.790;2022-09-12T06:25:58;21.97;;;10.67;;
17251;SDS011;8742;51.716;8.790;2022-09-12T06:28:26;15.40;;;9.83;;
17251;SDS011;8742;51.716;8.790;2022-09-12T06:30:53;17.23;;;9.73;;
17251;SDS011;8742;51.716;8.790;2022-09-12T06:33:26;18.03;;;9.57;;
17251;SDS011;8742;51.716;8.790;2022-09-12T06:35:52;19.20;;;10.50;;
17251;SDS011;8742;51.716;8.790;2022-09-12T06:38:19;13.50;;;9.17;;
17251;SDS011;8742;51.716;8.790;2022-09-12T06:40:46;14.97;;;8.97;;
17251;SDS011;8742;51.716;8.790;2022-09-12T06:43:14;13.80;;;8.73;;
17251;SDS011;8742;51.716;8.790;2022-09-12T06:45:47;11.07;;;8.67;;
17251;SDS011;8742;51.716;8.790;2022-09-12T06:48:15;16.77;;;8.80;;
17251;SDS011;8742;51.716;8.790;2022-09-12T06:50:41;13.03;;;8.43;;
17251;SDS011;8742;51.716;8.790;2022-09-12T06:53:08;11.83;;;7.57;;
17251;SDS011;8742;51.716;8.790;2022-09-12T06:55:35;10.23;;;7.63;;
17251;SDS011;8742;51.716;8.790;2022-09-12T06:58:02;12.23;;;8.23;;
17251;SDS011;8742;51.716;8.790;2022-09-12T07:00:31;11.63;;;8.03;;
17251;SDS011;8742;51.716;8.790;2022-09-12T07:02:57;12.07;;;8.00;;
17251;SDS011;8742;51.716;8.790;2022-09-12T07:05:24;12.50;;;7.70;;
17251;SDS011;8742;51.716;8.790;2022-09-12T07:07:52;13.20;;;8.60;;
17251;SDS011;8742;51.716;8.790;2022-09-12T07:10:19;15.00;;;8.40;;
17251;SDS011;8742;51.716;8.790;2022-09-12T07:12:46;15.03;;;8.80;;
17251;SDS011;8742;51.716;8.790;2022-09-12T07:15:13;11.03;;;7.50;;
17251;SDS011;8742;51.716;8.790;2022-09-12T07:17:41;11.40;;;6.30;;
17251;SDS011;8742;51.716;8.790;2022-09-12T07:20:09;17.87;;;6.73;;
17251;SDS011;8742;51.716;8.790;2022-09-12T07:22:35;10.23;;;6.67;;
17251;SDS011;8742;51.716;8.790;2022-09-12T07:25:02;8.73;;;6.67;;
17251;SDS011;8742;51.716;8.790;2022-09-12T07:27:30;7.53;;;6.40;;
17251;SDS011;8742;51.716;8.790;2022-09-12T07:29:57;8.67;;;5.40;;
17251;SDS011;8742;51.716;8.790;2022-09-12T07:32:24;7.47;;;5.83;;
17251;SDS011;8742;51.716;8.790;2022-09-12T07:34:52;6.43;;;4.70;;
17251;SDS011;8742;51.716;8.790;2022-09-12T07:37:19;7.77;;;4.97;;
17251;SDS011;8742;51.716;8.790;2022-09-12T07:39:46;9.37;;;5.13;;
17251;SDS011;8742;51.716;8.790;2022-09-12T07:42:12;9.17;;;5.50;;
17251;SDS011;8742;51.716;8.790;2022-09-12T07:44:39;9.33;;;5.10;;
17251;SDS011;8742;51.716;8.790;2022-09-12T07:47:06;8.20;;;5.03;;
17251;SDS011;8742;51.716;8.790;2022-09-12T07:49:33;10.97;;;5.90;;
17251;SDS011;8742;51.716;8.790;2022-09-12T07:52:02;8.47;;;5.80;;
17251;SDS011;8742;51.716;8.790;2022-09-12T07:54:28;9.47;;;5.63;;
17251;SDS011;8742;51.716;8.790;2022-09-12T07:56:57;9.97;;;6.40;;
17251;SDS011;8742;51.716;8.790;2022-09-12T07:59:24;7.60;;;5.60;;
17251;SDS011;8742;51.716;8.790;2022-09-12T08:01:52;11.93;;;5.90;;
17251;SDS011;8742;51.716;8.790;2022-09-12T08:04:19;9.23;;;5.57;;
17251;SDS011;8742;51.716;8.790;2022-09-12T08:06:46;7.93;;;5.50;;
17251;SDS011;8742;51.716;8.790;2022-09-12T08:09:14;6.90;;;5.47;;
17251;SDS011;8742;51.716;8.790;2022-09-12T08:11:41;6.97;;;5.37;;
17251;SDS011;8742;51.716;8.790;2022-09-12T08:14:09;8.27;;;5.47;;
17251;SDS011;8742;51.716;8.790;2022-09-12T08:16:36;8.97;;;5.10;;
17251;SDS011;8742;51.716;8.790;2022-09-12T08:19:03;4.93;;;4.27;;
17251;SDS011;8742;51.716;8.790;2022-09-12T08:21:31;6.43;;;4.40;;
17251;SDS011;8742;51.716;8.790;2022-09-12T08:23:59;7.60;;;4.57;;
17251;SDS011;8742;51.716;8.790;2022-09-12T08:26:29;4.57;;;4.07;;
17251;SDS011;8742;51.716;8.790;2022-09-12T08:28:56;5.53;;;3.90;;
17251;SDS011;8742;51.716;8.790;2022-09-12T08:31:24;6.17;;;4.20;;
17251;SDS011;8742;51.716;8.790;2022-09-12T08:33:53;4.53;;;3.87;;
17251;SDS011;8742;51.716;8.790;2022-09-12T08:36:22;5.40;;;3.80;;
17251;SDS011;8742;51.716;8.790;2022-09-12T08:38:50;3.83;;;3.47;;
17251;SDS011;8742;51.716;8.790;2022-09-12T08:41:22;6.47;;;4.10;;
17251;SDS011;8742;51.716;8.790;2022-09-12T08:47:01;6.10;;;3.37;;
17251;SDS011;8742;51.716;8.790;2022-09-12T08:49:41;6.43;;;3.40;;
17251;SDS011;8742;51.716;8.790;2022-09-12T08:52:16;3.93;;;3.30;;
17251;SDS011;8742;51.716;8.790;2022-09-12T08:54:51;7.20;;;3.33;;
17251;SDS011;8742;51.716;8.790;2022-09-12T08:57:20;3.37;;;3.07;;
17251;SDS011;8742;51.716;8.790;2022-09-12T08:59:49;5.80;;;3.47;;
17251;SDS011;8742;51.716;8.790;2022-09-12T09:02:26;3.33;;;2.90;;
17251;SDS011;8742;51.716;8.790;2022-09-12T09:05:15;4.97;;;3.70;;
17251;SDS011;8742;51.716;8.790;2022-09-12T09:08:00;5.87;;;3.47;;
17251;SDS011;8742;51.716;8.790;2022-09-12T09:10:48;5.70;;;3.07;;
17251;SDS011;8742;51.716;8.790;2022-09-12T09:13:27;8.27;;;4.00;;
17251;SDS011;8742;51.716;8.790;2022-09-12T09:16:23;4.97;;;3.90;;
17251;SDS011;8742;51.716;8.790;2022-09-12T09:18:56;4.70;;;4.30;;
17251;SDS011;8742;51.716;8.790;2022-09-12T09:21:27;6.87;;;4.90;;
17251;SDS011;8742;51.716;8.790;2022-09-12T09:23:59;4.50;;;3.90;;
17251;SDS011;8742;51.716;8.790;2022-09-12T09:26:33;7.40;;;4.10;;
17251;SDS011;8742;51.716;8.790;2022-09-12T09:29:10;6.17;;;4.70;;
17251;SDS011;8742;51.716;8.790;2022-09-12T09:31:44;7.43;;;4.47;;
17251;SDS011;8742;51.716;8.790;2022-09-12T09:34:14;5.90;;;4.30;;
17251;SDS011;8742;51.716;8.790;2022-09-12T09:36:47;8.57;;;4.17;;
17251;SDS011;8742;51.716;8.790;2022-09-12T09:39:18;8.50;;;5.63;;
17251;SDS011;8742;51.716;8.790;2022-09-12T09:41:55;8.03;;;5.07;;
17251;SDS011;8742;51.716;8.790;2022-09-12T09:44:38;7.67;;;5.20;;
17251;SDS011;8742;51.716;8.790;2022-09-12T09:47:08;5.23;;;4.73;;
17251;SDS011;8742;51.716;8.790;2022-09-12T09:49:36;8.63;;;4.67;;
17251;SDS011;8742;51.716;8.790;2022-09-12T09:52:04;5.67;;;4.67;;
17251;SDS011;8742;51.716;8.790;2022-09-12T09:54:34;8.00;;;5.73;;
17251;SDS011;8742;51.716;8.790;2022-09-12T09:57:05;7.93;;;5.13;;
17251;SDS011;8742;51.716;8.790;2022-09-12T10:00:18;5.07;;;4.57;;
17251;SDS011;8742;51.716;8.790;2022-09-12T10:03:03;7.30;;;4.73;;
17251;SDS011;8742;51.716;8.790;2022-09-12T10:05:46;9.73;;;4.97;;
17251;SDS011;8742;51.716;8.790;2022-09-12T10:08:21;10.10;;;5.40;;
17251;SDS011;8742;51.716;8.790;2022-09-12T10:10:57;8.50;;;5.10;;
17251;SDS011;8742;51.716;8.790;2022-09-12T10:13:34;8.77;;;5.70;;
17251;SDS011;8742;51.716;8.790;2022-09-12T10:16:05;8.07;;;5.50;;
17251;SDS011;8742;51.716;8.790;2022-09-12T10:18:44;5.77;;;4.73;;
17251;SDS011;8742;51.716;8.790;2022-09-12T10:21:13;8.03;;;5.20;;
17251;SDS011;8742;51.716;8.790;2022-09-12T10:24:00;11.13;;;4.60;;
17251;SDS011;8742;51.716;8.790;2022-09-12T10:26:40;10.83;;;5.53;;
17251;SDS011;8742;51.716;8.790;2022-09-12T10:29:10;7.87;;;5.43;;
17251;SDS011;8742;51.716;8.790;2022-09-12T10:31:42;6.53;;;4.93;;
17251;SDS011;8742;51.716;8.790;2022-09-12T10:34:20;6.70;;;4.90;;
17251;SDS011;8742;51.716;8.790;2022-09-12T10:36:51;5.50;;;4.60;;
17251;SDS011;8742;51.716;8.790;2022-09-12T10:39:20;5.60;;;4.87;;
17251;SDS011;8742;51.716;8.790;2022-09-12T10:41:47;9.63;;;4.97;;
17251;SDS011;8742;51.716;8.790;2022-09-12T10:44:15;6.57;;;4.40;;
17251;SDS011;8742;51.716;8.790;2022-09-12T10:46:43;9.70;;;5.90;;
17251;SDS011;8742;51.716;8.790;2022-09-12T10:49:12;9.27;;;6.30;;
17251;SDS011;8742;51.716;8.790;2022-09-12T10:51:49;8.23;;;4.90;;
17251;SDS011;8742;51.716;8.790;2022-09-12T10:54:17;6.83;;;4.60;;
17251;SDS011;8742;51.716;8.790;2022-09-12T10:56:51;11.43;;;4.90;;
17251;SDS011;8742;51.716;8.790;2022-09-12T10:59:33;13.53;;;5.80;;
17251;SDS011;8742;51.716;8.790;2022-09-12T11:02:26;5.93;;;4.63;;
17251;SDS011;8742;51.716;8.790;2022-09-12T11:04:58;5.50;;;4.70;;
17251;SDS011;8742;51.716;8.790;2022-09-12T11:07:37;10.23;;;4.87;;
17251;SDS011;8742;51.716;8.790;2022-09-12T11:10:17;4.73;;;4.23;;
17251;SDS011;8742;51.716;8.790;2022-09-12T11:12:58;7.67;;;3.93;;
17251;SDS011;8742;51.716;8.790;2022-09-12T11:15:39;13.60;;;4.43;;
17251;SDS011;8742;51.716;8.790;2022-09-12T11:18:33;4.03;;;3.73;;
17251;SDS011;8742;51.716;8.790;2022-09-12T11:21:27;6.33;;;5.00;;
17251;SDS011;8742;51.716;8.790;2022-09-12T11:24:10;8.80;;;4.97;;
17251;SDS011;8742;51.716;8.790;2022-09-12T11:27:04;6.20;;;4.30;;
17251;SDS011;8742;51.716;8.790;2022-09-12T11:29:46;5.37;;;4.50;;
17251;SDS011;8742;51.716;8.790;2022-09-12T11:35:18;6.57;;;4.30;;
17251;SDS011;8742;51.716;8.790;2022-09-12T11:38:05;5.00;;;4.00;;
17251;SDS011;8742;51.716;8.790;2022-09-12T11:40:43;7.40;;;4.37;;
17251;SDS011;8742;51.716;8.790;2022-09-12T11:43:19;5.10;;;3.83;;
17251;SDS011;8742;51.716;8.790;2022-09-12T11:45:50;8.27;;;3.90;;
17251;SDS011;8742;51.716;8.790;2022-09-12T11:48:19;6.07;;;4.07;;
17251;SDS011;8742;51.716;8.790;2022-09-12T11:50:54;5.27;;;4.00;;
17251;SDS011;8742;51.716;8.790;2022-09-12T11:53:25;5.70;;;3.83;;
17251;SDS011;8742;51.716;8.790;2022-09-12T11:55:56;4.47;;;3.93;;
17251;SDS011;8742;51.716;8.790;2022-09-12T11:58:29;6.47;;;3.57;;
17251;SDS011;8742;51.716;8.790;2022-09-12T12:00:58;6.38;;;3.58;;
17251;SDS011;8742;51.716;8.790;2022-09-12T12:03:38;5.93;;;4.10;;
17251;SDS011;8742;51.716;8.790;2022-09-12T12:06:10;4.93;;;3.70;;
17251;SDS011;8742;51.716;8.790;2022-09-12T12:08:39;5.10;;;4.13;;
17251;SDS011;8742;51.716;8.790;2022-09-12T12:11:08;6.80;;;4.55;;
17251;SDS011;8742;51.716;8.790;2022-09-12T12:13:37;6.03;;;4.10;;
17251;SDS011;8742;51.716;8.790;2022-09-12T12:16:11;4.32;;;3.92;;
17251;SDS011;8742;51.716;8.790;2022-09-12T12:18:41;5.43;;;4.15;;
17251;SDS011;8742;51.716;8.790;2022-09-12T12:21:20;5.38;;;4.10;;
17251;SDS011;8742;51.716;8.790;2022-09-12T12:24:10;10.27;;;4.25;;
17251;SDS011;8742;51.716;8.790;2022-09-12T12:26:41;8.32;;;3.88;;
17251;SDS011;8742;51.716;8.790;2022-09-12T12:29:34;3.92;;;3.42;;
17251;SDS011;8742;51.716;8.790;2022-09-12T12:32:23;4.32;;;3.42;;
17251;SDS011;8742;51.716;8.790;2022-09-12T12:34:50;4.85;;;3.70;;
17251;SDS011;8742;51.716;8.790;2022-09-12T12:37:52;7.03;;;3.53;;
17251;SDS011;8742;51.716;8.790;2022-09-12T12:40:24;4.40;;;3.30;;
17251;SDS011;8742;51.716;8.790;2022-09-12T12:42:56;5.30;;;3.45;;
17251;SDS011;8742;51.716;8.790;2022-09-12T12:45:58;4.78;;;3.30;;
17251;SDS011;8742;51.716;8.790;2022-09-12T12:48:34;6.40;;;4.15;;
17251;SDS011;8742;51.716;8.790;2022-09-12T12:51:34;5.65;;;4.38;;
17251;SDS011;8742;51.716;8.790;2022-09-12T12:57:28;4.88;;;3.60;;
17251;SDS011;8742;51.716;8.790;2022-09-12T13:00:03;6.55;;;3.60;;
17251;SDS011;8742;51.716;8.790;2022-09-12T13:02:33;6.40;;;3.38;;
17251;SDS011;8742;51.716;8.790;2022-09-12T13:05:06;8.30;;;3.47;;
17251;SDS011;8742;51.716;8.790;2022-09-12T13:07:43;5.20;;;3.53;;
17251;SDS011;8742;51.716;8.790;2022-09-12T13:10:18;5.80;;;3.53;;
17251;SDS011;8742;51.716;8.790;2022-09-12T13:12:49;4.97;;;2.95;;
17251;SDS011;8742;51.716;8.790;2022-09-12T13:18:14;3.67;;;3.28;;
17251;SDS011;8742;51.716;8.790;2022-09-12T13:20:46;6.47;;;3.58;;
17251;SDS011;8742;51.716;8.790;2022-09-12T13:23:20;5.90;;;3.13;;
17251;SDS011;8742;51.716;8.790;2022-09-12T13:25:52;3.42;;;3.13;;
17251;SDS011;8742;51.716;8.790;2022-09-12T13:28:20;3.40;;;3.05;;
17251;SDS011;8742;51.716;8.790;2022-09-12T13:30:53;9.80;;;3.13;;
17251;SDS011;8742;51.716;8.790;2022-09-12T13:33:26;3.92;;;3.00;;
17251;SDS011;8742;51.716;8.790;2022-09-12T13:39:11;4.72;;;3.38;;
17251;SDS011;8742;51.716;8.790;2022-09-12T13:41:54;3.97;;;2.83;;
17251;SDS011;8742;51.716;8.790;2022-09-12T13:44:46;4.45;;;3.20;;
17251;SDS011;8742;51.716;8.790;2022-09-12T13:47:17;3.45;;;3.13;;
17251;SDS011;8742;51.716;8.790;2022-09-12T13:49:49;3.88;;;3.10;;
17251;SDS011;8742;51.716;8.790;2022-09-12T13:52:18;4.13;;;3.30;;
17251;SDS011;8742;51.716;8.790;2022-09-12T13:54:47;4.25;;;2.92;;
17251;SDS011;8742;51.716;8.790;2022-09-12T14:00:11;3.00;;;2.80;;
17251;SDS011;8742;51.716;8.790;2022-09-12T14:02:44;4.32;;;3.30;;
17251;SDS011;8742;51.716;8.790;2022-09-12T14:05:12;3.40;;;3.10;;
17251;SDS011;8742;51.716;8.790;2022-09-12T14:07:50;3.20;;;2.90;;
17251;SDS011;8742;51.716;8.790;2022-09-12T14:10:21;5.47;;;3.22;;
17251;SDS011;8742;51.716;8.790;2022-09-12T14:12:52;5.13;;;3.50;;
17251;SDS011;8742;51.716;8.790;2022-09-12T14:15:23;4.03;;;3.05;;
17251;SDS011;8742;51.716;8.790;2022-09-12T14:17:52;4.43;;;3.20;;
17251;SDS011;8742;51.716;8.790;2022-09-12T14:20:23;4.35;;;3.30;;
17251;SDS011;8742;51.716;8.790;2022-09-12T14:22:52;5.03;;;3.50;;
17251;SDS011;8742;51.716;8.790;2022-09-12T14:25:19;3.08;;;2.80;;
17251;SDS011;8742;51.716;8.790;2022-09-12T14:27:49;4.90;;;3.42;;
17251;SDS011;8742;51.716;8.790;2022-09-12T14:30:23;4.53;;;3.30;;
17251;SDS011;8742;51.716;8.790;2022-09-12T14:33:01;3.30;;;2.95;;
17251;SDS011;8742;51.716;8.790;2022-09-12T14:35:29;6.13;;;3.25;;
17251;SDS011;8742;51.716;8.790;2022-09-12T14:38:03;3.80;;;3.00;;
17251;SDS011;8742;51.716;8.790;2022-09-12T14:40:38;3.35;;;2.85;;
17251;SDS011;8742;51.716;8.790;2022-09-12T14:43:14;4.75;;;3.58;;
17251;SDS011;8742;51.716;8.790;2022-09-12T14:45:52;3.83;;;3.03;;
17251;SDS011;8742;51.716;8.790;2022-09-12T14:48:21;3.40;;;3.10;;
17251;SDS011;8742;51.716;8.790;2022-09-12T14:50:49;3.20;;;2.90;;
17251;SDS011;8742;51.716;8.790;2022-09-12T14:53:22;3.05;;;2.75;;
17251;SDS011;8742;51.716;8.790;2022-09-12T14:55:56;5.65;;;2.63;;
17251;SDS011;8742;51.716;8.790;2022-09-12T14:58:30;3.05;;;2.78;;
17251;SDS011;8742;51.716;8.790;2022-09-12T15:01:00;4.43;;;2.80;;
17251;SDS011;8742;51.716;8.790;2022-09-12T15:03:29;4.88;;;3.60;;
17251;SDS011;8742;51.716;8.790;2022-09-12T15:05:58;4.85;;;3.05;;
17251;SDS011;8742;51.716;8.790;2022-09-12T15:08:27;5.10;;;3.10;;
17251;SDS011;8742;51.716;8.790;2022-09-12T15:10:54;5.88;;;3.08;;
17251;SDS011;8742;51.716;8.790;2022-09-12T15:13:22;4.45;;;2.65;;
17251;SDS011;8742;51.716;8.790;2022-09-12T15:15:51;4.18;;;3.42;;
17251;SDS011;8742;51.716;8.790;2022-09-12T15:18:21;4.63;;;2.90;;
17251;SDS011;8742;51.716;8.790;2022-09-12T15:20:51;5.05;;;3.25;;
17251;SDS011;8742;51.716;8.790;2022-09-12T15:23:28;5.68;;;2.95;;
17251;SDS011;8742;51.716;8.790;2022-09-12T15:25:58;5.20;;;3.10;;
17251;SDS011;8742;51.716;8.790;2022-09-12T15:28:25;3.08;;;2.78;;
17251;SDS011;8742;51.716;8.790;2022-09-12T15:30:52;5.47;;;3.20;;
17251;SDS011;8742;51.716;8.790;2022-09-12T15:33:22;4.95;;;2.80;;
17251;SDS011;8742;51.716;8.790;2022-09-12T15:35:50;3.65;;;2.42;;
17251;SDS011;8742;51.716;8.790;2022-09-12T15:38:18;4.30;;;3.05;;